ADDS METAR Data INFO
IDs: Format: Raw Decoded Include TAF

Data at: 2136 UTC 15 Dec 2017

METAR for:KAPF (Naples Muni, FL, US)
Text:KAPF 152053Z 21006KT 10SM CLR 23/13 A3008 RMK AO2 SLP184 T02330133 55001
Temperature: 23.3°C ( 74°F)
Dewpoint: 13.3°C ( 56°F) [RH = 53%]
Pressure (altimeter):30.08 inches Hg (1018.7 mb) [Sea level pressure: 1018.4 mb]
Winds:from the SSW (210 degrees) at 7 MPH (6 knots; 3.1 m/s)
Visibility:10 or more sm (16+ km)
Ceiling:at least 12,000 feet AGL
Clouds:sky clear below 12,000 feet AGL